createdAt,value
2023-03-27T00:00:22.386Z,69.90
2023-03-27T00:02:01.131Z,69.85
2023-03-27T00:03:23.063Z,69.79
2023-03-27T00:05:09.144Z,70.25
2023-03-27T00:06:45.558Z,70.06
2023-03-27T00:08:30.847Z,69.69
2023-03-27T00:09:53.770Z,70.28
2023-03-27T00:11:18.451Z,70.14
2023-03-27T00:12:54.229Z,69.73
2023-03-27T00:14:18.300Z,69.33
2023-03-27T00:16:05.548Z,69.59
2023-03-27T00:17:34.333Z,70.14
2023-03-27T00:19:10.716Z,70.04
2023-03-27T00:20:33.373Z,69.99
2023-03-27T00:21:57.529Z,69.82
2023-03-27T00:23:30.832Z,70.28
2023-03-27T00:25:11.800Z,70.66
2023-03-27T00:26:45.557Z,70.78
2023-03-27T00:28:20.250Z,70.74
2023-03-27T00:29:53.920Z,70.76
2023-03-27T00:31:39.200Z,70.75
2023-03-27T00:33:01.515Z,70.80
2023-03-27T00:34:35.584Z,70.31
2023-03-27T00:36:21.095Z,69.89
2023-03-27T00:37:54.586Z,69.85
2023-03-27T00:39:28.287Z,69.78
2023-03-27T00:41:02.413Z,69.60
2023-03-27T00:42:54.731Z,69.67
2023-03-27T00:44:31.026Z,69.12
2023-03-27T00:46:13.746Z,68.89
2023-03-27T00:47:38.499Z,68.82
2023-03-27T00:49:00.176Z,68.85
2023-03-27T00:50:25.578Z,68.52
2023-03-27T00:51:59.342Z,68.09
2023-03-27T00:53:34.752Z,68.04
2023-03-27T00:55:20.329Z,67.98
2023-03-27T00:57:14.167Z,67.95
2023-03-27T00:58:38.262Z,67.85
2023-03-27T01:00:13.375Z,67.71
2023-03-27T01:01:58.518Z,67.76
2023-03-27T01:03:35.629Z,67.53
2023-03-27T01:05:21.524Z,67.40
2023-03-27T01:07:07.625Z,67.62
2023-03-27T01:08:41.518Z,67.06
2023-03-27T01:10:14.995Z,67.35
2023-03-27T01:11:48.776Z,67.85
2023-03-27T01:13:35.201Z,67.78
2023-03-27T01:15:20.127Z,67.52
2023-03-27T01:16:56.525Z,67.67
2023-03-27T01:18:30.207Z,67.72
2023-03-27T01:20:14.865Z,67.54
2023-03-27T01:21:59.883Z,68.18
2023-03-27T01:23:59.131Z,67.47
2023-03-27T01:25:14.287Z,67.54
2023-03-27T01:27:08.689Z,68.09
2023-03-27T01:28:43.175Z,67.95
2023-03-27T01:30:16.698Z,67.92
2023-03-27T01:32:02.536Z,68.12
2023-03-27T01:33:51.119Z,67.92
2023-03-27T01:35:37.002Z,68.27
2023-03-27T01:37:22.895Z,68.42
2023-03-27T01:39:09.444Z,67.91
2023-03-27T01:40:54.704Z,68.16
2023-03-27T01:42:26.765Z,68.20
2023-03-27T01:43:48.605Z,68.44
2023-03-27T01:45:33.740Z,68.55
2023-03-27T01:47:09.630Z,68.80
2023-03-27T01:48:43.144Z,69.02
2023-03-27T01:50:08.136Z,69.10
2023-03-27T01:51:41.264Z,69.14
2023-03-27T01:53:16.831Z,68.77
2023-03-27T01:55:10.280Z,68.69
2023-03-27T01:56:51.685Z,68.96
2023-03-27T01:58:40.912Z,68.75
2023-03-27T02:00:22.730Z,68.71
2023-03-27T02:01:56.430Z,68.88
2023-03-27T02:03:32.423Z,69.25
2023-03-27T02:05:17.396Z,69.27
2023-03-27T02:07:03.029Z,69.22
2023-03-27T02:08:39.215Z,69.58
2023-03-27T02:10:10.926Z,69.67
2023-03-27T02:11:38.434Z,69.68
2023-03-27T02:13:18.995Z,70.17
2023-03-27T02:14:44.520Z,70.07
2023-03-27T02:16:11.035Z,70.37
2023-03-27T02:17:51.276Z,70.16
2023-03-27T02:19:33.816Z,70.38
2023-03-27T02:21:07.049Z,70.64
2023-03-27T02:22:40.757Z,70.66
2023-03-27T02:24:06.077Z,70.72
2023-03-27T02:25:51.378Z,70.78
2023-03-27T02:27:33.997Z,71.00
2023-03-27T02:29:14.570Z,71.14
2023-03-27T02:30:41.147Z,71.25
2023-03-27T02:32:07.251Z,71.37
2023-03-27T02:33:42.210Z,71.44
2023-03-27T02:35:17.702Z,71.61
2023-03-27T02:36:53.353Z,71.71
2023-03-27T02:38:30.289Z,71.87
2023-03-27T02:39:54.064Z,72.26
2023-03-27T02:41:28.025Z,72.39
2023-03-27T02:43:18.207Z,72.80
2023-03-27T02:44:59.981Z,72.93
2023-03-27T02:46:54.782Z,73.47
2023-03-27T02:48:36.296Z,73.63
2023-03-27T02:50:18.868Z,73.89
2023-03-27T02:51:52.483Z,74.09
2023-03-27T02:53:25.889Z,74.38
2023-03-27T02:55:04.800Z,74.62
2023-03-27T02:56:50.793Z,74.82
2023-03-27T02:58:50.972Z,75.04
2023-03-27T03:00:50.350Z,75.29
2023-03-27T03:03:10.916Z,75.39
2023-03-27T03:05:03.951Z,75.52
2023-03-27T03:06:53.958Z,75.78
2023-03-27T03:08:42.126Z,75.92
2023-03-27T03:10:05.541Z,76.08
2023-03-27T03:11:56.481Z,76.09
2023-03-27T03:13:52.051Z,76.40
2023-03-27T03:15:45.588Z,76.61
2023-03-27T03:17:19.337Z,76.83
2023-03-27T03:19:10.006Z,76.78
2023-03-27T03:20:59.095Z,76.93
2023-03-27T03:22:36.311Z,77.11
2023-03-27T03:24:13.890Z,77.25
2023-03-27T03:26:08.096Z,77.19
2023-03-27T03:28:16.903Z,77.69
2023-03-27T03:30:11.111Z,77.98
2023-03-27T03:32:16.033Z,78.19
2023-03-27T03:33:57.595Z,78.34
2023-03-27T03:35:43.427Z,78.38
2023-03-27T03:37:30.680Z,78.52
2023-03-27T03:39:06.109Z,78.70
2023-03-27T03:40:48.130Z,79.03
2023-03-27T03:42:23.846Z,78.97
2023-03-27T03:44:10.753Z,79.06
2023-03-27T03:45:45.561Z,79.06
2023-03-27T03:47:12.694Z,79.10
2023-03-27T03:49:05.843Z,79.05
2023-03-27T03:50:39.774Z,79.14
2023-03-27T03:52:25.521Z,79.12
2023-03-27T03:54:11.440Z,79.25
2023-03-27T03:56:06.748Z,79.14
2023-03-27T03:57:43.216Z,78.61
2023-03-27T03:59:19.340Z,78.58
2023-03-27T04:01:02.890Z,78.77
2023-03-27T04:02:44.456Z,78.57
2023-03-27T04:04:40.740Z,78.68
2023-03-27T04:06:07.592Z,78.75
2023-03-27T04:07:43.609Z,78.42
2023-03-27T04:09:24.593Z,78.64
2023-03-27T04:11:20.931Z,78.81
2023-03-27T04:13:17.448Z,78.42
2023-03-27T04:15:05.580Z,78.93
2023-03-27T04:16:46.571Z,78.78
2023-03-27T04:18:26.591Z,78.64
2023-03-27T04:20:04.411Z,78.74
2023-03-27T04:21:58.231Z,78.62
2023-03-27T04:23:43.596Z,78.93
2023-03-27T04:25:34.740Z,78.89
2023-03-27T04:27:21.067Z,78.95
2023-03-27T04:29:13.454Z,79.04
2023-03-27T04:31:39.568Z,78.88
2023-03-27T04:33:47.505Z,79.06
2023-03-27T04:35:41.353Z,79.14
2023-03-27T04:37:24.478Z,79.11
2023-03-27T04:39:42.603Z,79.17
2023-03-27T04:41:18.235Z,79.02
2023-03-27T04:43:01.289Z,79.10
2023-03-27T04:44:37.636Z,78.95
2023-03-27T04:46:06.769Z,79.11
2023-03-27T04:48:00.948Z,79.27
2023-03-27T04:50:02.397Z,79.22
2023-03-27T04:51:52.917Z,79.16
2023-03-27T04:53:41.914Z,78.96
2023-03-27T04:55:28.434Z,78.82
2023-03-27T04:57:13.601Z,78.73
2023-03-27T04:58:58.711Z,78.65
2023-03-27T05:00:32.664Z,78.47
2023-03-27T05:02:28.089Z,78.30
2023-03-27T05:04:18.015Z,77.90
2023-03-27T05:06:37.432Z,77.80
2023-03-27T05:08:23.701Z,77.20
2023-03-27T05:10:15.593Z,77.19
2023-03-27T05:11:55.549Z,77.16
2023-03-27T05:13:49.320Z,76.84
2023-03-27T05:15:40.387Z,76.77
2023-03-27T05:17:27.387Z,76.63
2023-03-27T05:19:03.659Z,76.83
2023-03-27T05:20:50.668Z,76.60
2023-03-27T05:22:35.583Z,76.50
2023-03-27T05:24:15.428Z,76.29
2023-03-27T05:26:00.195Z,76.25
2023-03-27T05:27:54.721Z,75.97
2023-03-27T05:29:47.216Z,75.65
2023-03-27T05:31:22.297Z,75.61
2023-03-27T05:33:40.090Z,75.38
2023-03-27T05:35:23.654Z,75.35
2023-03-27T05:36:58.956Z,75.68
2023-03-27T05:38:45.597Z,75.37
2023-03-27T05:40:23.122Z,75.76
2023-03-27T05:42:04.430Z,75.51
2023-03-27T05:43:51.154Z,75.47
2023-03-27T05:45:37.732Z,75.28
2023-03-27T05:47:25.962Z,75.07
2023-03-27T05:49:02.205Z,74.78
2023-03-27T05:50:47.475Z,75.02
2023-03-27T05:52:41.824Z,75.13
2023-03-27T05:54:27.513Z,75.18
2023-03-27T05:56:07.726Z,74.95
2023-03-27T05:57:44.986Z,75.22
2023-03-27T05:59:20.236Z,75.00
2023-03-27T06:01:14.842Z,74.87
2023-03-27T06:03:02.420Z,74.82
2023-03-27T06:05:06.753Z,74.82
2023-03-27T06:06:44.277Z,75.14
2023-03-27T06:08:26.160Z,75.16
2023-03-27T06:10:00.444Z,74.97
2023-03-27T06:11:39.831Z,74.70
2023-03-27T06:13:25.469Z,74.70
2023-03-27T06:15:16.300Z,74.56
2023-03-27T06:17:06.735Z,75.10
2023-03-27T06:18:55.696Z,74.87
2023-03-27T06:20:22.916Z,74.88
2023-03-27T06:22:10.152Z,74.87
2023-03-27T06:23:43.904Z,74.88
2023-03-27T06:25:09.392Z,74.96
2023-03-27T06:26:50.189Z,74.51
2023-03-27T06:28:23.922Z,74.15
2023-03-27T06:30:09.443Z,74.19
2023-03-27T06:31:44.796Z,73.93
2023-03-27T06:33:43.744Z,73.56
2023-03-27T06:35:20.176Z,73.71
2023-03-27T06:36:48.691Z,73.81
2023-03-27T06:38:34.841Z,73.59
2023-03-27T06:40:22.750Z,73.59
2023-03-27T06:42:05.674Z,73.53
2023-03-27T06:44:18.953Z,73.64
2023-03-27T06:46:05.288Z,73.61
2023-03-27T06:47:55.993Z,73.68
2023-03-27T06:49:47.538Z,73.82
2023-03-27T06:51:36.156Z,73.99
2023-03-27T06:54:52.445Z,74.01
2023-03-27T06:56:18.918Z,73.91
2023-03-27T06:58:13.459Z,73.88
2023-03-27T07:00:01.634Z,74.10
2023-03-27T07:01:44.629Z,74.01
2023-03-27T07:04:02.429Z,73.93
2023-03-27T07:06:39.658Z,74.03
2023-03-27T07:08:29.217Z,73.41
2023-03-27T07:10:05.149Z,73.34
2023-03-27T07:11:39.694Z,73.15
2023-03-27T07:13:16.450Z,72.77
2023-03-27T07:14:51.980Z,73.21
2023-03-27T07:16:45.568Z,73.05
2023-03-27T07:18:31.169Z,72.57
2023-03-27T07:20:12.706Z,72.55
2023-03-27T07:21:57.720Z,72.31
2023-03-27T07:23:31.702Z,71.91
2023-03-27T07:24:59.005Z,71.96
2023-03-27T07:26:34.381Z,72.01
2023-03-27T07:28:21.873Z,72.35
2023-03-27T07:30:09.350Z,72.49
2023-03-27T07:32:07.181Z,71.79
2023-03-27T07:34:08.917Z,72.05
2023-03-27T07:35:49.691Z,72.26
2023-03-27T07:37:50.074Z,72.27
2023-03-27T07:39:51.732Z,72.08
2023-03-27T07:41:33.569Z,71.95
2023-03-27T07:43:07.027Z,71.73
2023-03-27T07:44:52.563Z,71.39
2023-03-27T07:46:46.147Z,71.73
2023-03-27T07:48:22.509Z,71.20
2023-03-27T07:50:16.203Z,71.15
2023-03-27T07:52:09.762Z,70.65
2023-03-27T07:54:09.728Z,70.77
2023-03-27T07:55:54.315Z,71.02
2023-03-27T07:57:49.677Z,70.67
2023-03-27T07:59:44.281Z,70.70
2023-03-27T08:01:12.676Z,70.42
2023-03-27T08:02:46.487Z,70.32
2023-03-27T08:04:32.538Z,70.06
2023-03-27T08:06:02.700Z,69.88
2023-03-27T08:07:57.761Z,69.38
2023-03-27T08:09:41.058Z,69.78
2023-03-27T08:11:30.657Z,70.00
2023-03-27T08:13:12.755Z,69.75
2023-03-27T08:14:54.135Z,69.74
2023-03-27T08:16:32.946Z,69.60
2023-03-27T08:18:08.982Z,69.36
2023-03-27T08:20:02.632Z,68.63
2023-03-27T08:21:49.334Z,68.16
2023-03-27T08:23:42.974Z,68.20
2023-03-27T08:25:43.766Z,67.99
2023-03-27T08:27:07.567Z,67.70
2023-03-27T08:28:56.076Z,67.25
2023-03-27T08:30:42.278Z,67.23
2023-03-27T08:32:27.582Z,67.51
2023-03-27T08:34:03.450Z,67.26
2023-03-27T08:35:53.882Z,67.03
2023-03-27T08:37:29.509Z,67.29
2023-03-27T08:39:45.775Z,66.88
2023-03-27T08:41:33.040Z,66.41
2023-03-27T08:43:16.794Z,65.93
2023-03-27T08:45:05.807Z,65.16
2023-03-27T08:46:56.038Z,64.44
2023-03-27T08:48:41.764Z,64.11
2023-03-27T08:50:27.693Z,64.54
2023-03-27T08:52:09.999Z,64.13
2023-03-27T08:53:52.481Z,64.59
2023-03-27T08:55:35.858Z,64.81
2023-03-27T08:57:28.322Z,64.81
2023-03-27T08:59:17.493Z,64.04
2023-03-27T09:01:03.965Z,64.19
2023-03-27T09:02:57.694Z,64.67
2023-03-27T09:04:53.521Z,64.63
2023-03-27T09:06:45.802Z,64.40
2023-03-27T09:08:19.548Z,63.71
2023-03-27T09:10:15.398Z,64.03
2023-03-27T09:12:00.369Z,64.32
2023-03-27T09:13:45.107Z,63.46
2023-03-27T09:15:30.889Z,62.87
2023-03-27T09:16:54.440Z,62.63
2023-03-27T09:18:36.550Z,61.42
2023-03-27T09:20:10.840Z,61.17
2023-03-27T09:21:36.094Z,61.46
2023-03-27T09:23:14.892Z,60.59
2023-03-27T09:25:53.833Z,59.78
2023-03-27T09:27:55.773Z,59.23
2023-03-27T09:29:38.488Z,59.16
2023-03-27T09:31:32.483Z,58.05
2023-03-27T09:33:19.912Z,58.68
2023-03-27T09:34:55.691Z,59.36
2023-03-27T09:36:39.880Z,59.23
2023-03-27T09:38:34.332Z,58.87
2023-03-27T09:40:23.547Z,58.50
2023-03-27T09:42:10.339Z,58.70
2023-03-27T09:43:53.235Z,58.98
2023-03-27T09:45:38.999Z,59.46
2023-03-27T09:47:14.179Z,59.94
2023-03-27T09:49:02.000Z,60.53
2023-03-27T09:50:54.131Z,60.38
2023-03-27T09:52:54.565Z,60.38
2023-03-27T09:55:00.060Z,60.45
2023-03-27T09:56:41.147Z,60.60
2023-03-27T09:58:18.628Z,59.83
2023-03-27T10:00:12.461Z,59.95
2023-03-27T10:01:36.403Z,59.47
2023-03-27T10:03:44.206Z,59.34
2023-03-27T10:05:30.229Z,59.67
2023-03-27T10:07:12.857Z,60.15
2023-03-27T10:09:18.256Z,60.62
2023-03-27T10:10:53.716Z,60.52
2023-03-27T10:13:25.622Z,60.61
2023-03-27T10:15:04.265Z,61.08
2023-03-27T10:16:54.085Z,61.23
2023-03-27T10:18:33.111Z,61.21
2023-03-27T10:20:05.473Z,61.32
2023-03-27T10:21:52.077Z,61.81
2023-03-27T10:23:29.692Z,62.22
2023-03-27T10:25:14.914Z,62.64
2023-03-27T10:26:58.766Z,63.41
2023-03-27T10:28:44.956Z,63.66
2023-03-27T10:30:13.462Z,63.55
2023-03-27T10:31:54.596Z,63.44
2023-03-27T10:33:38.467Z,63.94
2023-03-27T10:35:12.644Z,64.22
2023-03-27T10:37:06.057Z,64.01
2023-03-27T10:38:46.931Z,63.83
2023-03-27T10:41:03.770Z,63.86
2023-03-27T10:42:51.571Z,64.32
2023-03-27T10:44:17.610Z,64.74
2023-03-27T10:45:44.325Z,64.71
2023-03-27T10:47:28.423Z,64.88
2023-03-27T10:49:11.659Z,64.79
2023-03-27T10:50:33.800Z,64.66
2023-03-27T10:52:07.486Z,64.52
2023-03-27T10:54:03.792Z,64.37
2023-03-27T10:55:56.538Z,63.99
2023-03-27T10:57:21.339Z,63.87
2023-03-27T10:59:06.467Z,63.59
2023-03-27T11:00:41.317Z,63.34
2023-03-27T11:02:06.873Z,63.18
2023-03-27T11:03:50.967Z,63.22
2023-03-27T11:05:36.741Z,63.04
2023-03-27T11:07:18.227Z,62.72
2023-03-27T11:08:52.960Z,62.68
2023-03-27T11:10:22.359Z,61.69
2023-03-27T11:11:58.231Z,61.43
2023-03-27T11:13:32.199Z,61.04
2023-03-27T11:15:23.256Z,60.28
2023-03-27T11:17:16.570Z,59.58
2023-03-27T11:19:08.348Z,59.40
2023-03-27T11:20:59.489Z,59.42
2023-03-27T11:22:38.661Z,58.77
2023-03-27T11:24:03.927Z,58.88
2023-03-27T11:26:01.634Z,59.18
2023-03-27T11:27:39.821Z,59.12
2023-03-27T11:29:09.262Z,59.27
2023-03-27T11:30:55.978Z,59.68
2023-03-27T11:32:21.280Z,59.96
2023-03-27T11:34:13.353Z,60.42
2023-03-27T11:36:05.799Z,60.82
2023-03-27T11:37:57.079Z,61.11
2023-03-27T11:39:49.085Z,61.11
2023-03-27T11:41:30.060Z,61.24
2023-03-27T11:42:55.589Z,60.80
2023-03-27T11:44:19.808Z,60.82
2023-03-27T11:46:53.312Z,60.57
2023-03-27T11:48:27.238Z,59.51
2023-03-27T11:50:13.180Z,58.93
2023-03-27T11:51:38.058Z,58.18
2023-03-27T11:53:12.193Z,58.11
2023-03-27T11:55:23.877Z,57.86
2023-03-27T11:56:57.336Z,57.90
2023-03-27T11:59:27.764Z,58.00
2023-03-27T12:01:09.936Z,57.77
2023-03-27T12:02:45.593Z,58.10
2023-03-27T12:04:34.371Z,57.63
2023-03-27T12:06:11.280Z,57.75
2023-03-27T12:07:48.059Z,57.87
2023-03-27T12:09:25.790Z,57.60
2023-03-27T12:11:20.325Z,57.90
2023-03-27T12:13:11.584Z,57.78
2023-03-27T12:14:57.295Z,56.08
2023-03-27T12:16:31.533Z,55.32
2023-03-27T12:18:19.007Z,54.74
2023-03-27T12:20:15.131Z,54.86
2023-03-27T12:22:21.134Z,54.60
2023-03-27T12:23:58.754Z,54.45
2023-03-27T12:25:53.093Z,52.46
2023-03-27T12:27:52.058Z,52.66
2023-03-27T12:29:59.650Z,51.28
2023-03-27T12:31:33.201Z,51.56
2023-03-27T12:33:10.891Z,51.91
2023-03-27T12:34:52.021Z,52.77
2023-03-27T12:36:24.234Z,52.64
2023-03-27T12:38:06.873Z,53.08
2023-03-27T12:39:29.364Z,53.31
2023-03-27T12:41:16.191Z,53.16
2023-03-27T12:43:45.174Z,52.91
2023-03-27T12:45:14.250Z,53.79
2023-03-27T12:46:45.576Z,53.26
2023-03-27T12:48:15.971Z,53.40
2023-03-27T12:49:59.807Z,53.22
2023-03-27T12:51:37.850Z,53.47
2023-03-27T12:53:01.267Z,53.44
2023-03-27T12:54:32.573Z,53.70
2023-03-27T12:56:02.142Z,53.30
2023-03-27T12:57:37.921Z,53.20
2023-03-27T12:59:12.002Z,53.26
2023-03-27T13:01:01.615Z,53.51
2023-03-27T13:03:17.156Z,53.36
2023-03-27T13:04:50.943Z,52.83
2023-03-27T13:06:28.280Z,53.11
2023-03-27T13:08:10.074Z,53.22
2023-03-27T13:09:56.255Z,53.77
2023-03-27T13:11:37.106Z,53.82
2023-03-27T13:13:15.653Z,54.04
2023-03-27T13:14:45.390Z,53.94
2023-03-27T13:16:25.312Z,53.65
2023-03-27T13:18:01.842Z,53.53
2023-03-27T13:19:42.941Z,54.01
2023-03-27T13:21:14.903Z,53.86
2023-03-27T13:22:57.251Z,53.96
2023-03-27T13:24:22.046Z,54.30
2023-03-27T13:25:46.402Z,54.88
2023-03-27T13:27:08.286Z,54.41
2023-03-27T13:28:31.253Z,53.89
2023-03-27T13:30:24.720Z,53.99
2023-03-27T13:32:03.165Z,54.04
2023-03-27T13:34:18.449Z,53.89
2023-03-27T13:35:53.496Z,53.69
2023-03-27T13:37:17.559Z,53.63
2023-03-27T13:38:44.894Z,53.33
2023-03-27T13:40:10.241Z,53.28
2023-03-27T13:42:05.668Z,53.64
2023-03-27T13:43:42.716Z,53.92
2023-03-27T13:45:24.661Z,54.14
2023-03-27T13:47:21.080Z,53.17
2023-03-27T13:49:03.438Z,52.87
2023-03-27T13:50:39.269Z,53.28
2023-03-27T13:52:04.125Z,53.92
2023-03-27T13:53:25.961Z,54.33
2023-03-27T13:55:27.926Z,54.21
2023-03-27T13:57:25.833Z,54.59
2023-03-27T13:59:14.038Z,54.79
2023-03-27T14:00:49.789Z,55.04
2023-03-27T14:02:12.749Z,55.23
2023-03-27T14:03:45.313Z,54.88
2023-03-27T14:05:19.324Z,55.10
2023-03-27T14:06:49.095Z,55.67
2023-03-27T14:08:13.154Z,55.17
2023-03-27T14:10:04.250Z,54.81
2023-03-27T14:11:36.085Z,55.11
2023-03-27T14:13:00.720Z,55.28
2023-03-27T14:14:36.297Z,55.59
2023-03-27T14:15:58.334Z,55.40
2023-03-27T14:17:24.880Z,55.36
2023-03-27T14:18:48.390Z,55.20
2023-03-27T14:20:11.516Z,54.96
2023-03-27T14:21:38.828Z,54.86
2023-03-27T14:23:03.622Z,54.88
2023-03-27T14:24:34.581Z,54.13
2023-03-27T14:26:03.498Z,53.91
2023-03-27T14:27:28.030Z,53.94
2023-03-27T14:28:51.727Z,54.14
2023-03-27T14:30:21.667Z,54.12
2023-03-27T14:31:59.485Z,54.09
2023-03-27T14:33:24.673Z,54.07
2023-03-27T14:35:02.680Z,53.93
2023-03-27T14:36:30.135Z,53.33
2023-03-27T14:37:53.835Z,53.32
2023-03-27T14:39:19.831Z,53.30
2023-03-27T14:40:47.457Z,53.16
2023-03-27T14:42:10.548Z,53.51
2023-03-27T14:43:32.356Z,53.48
2023-03-27T14:44:54.753Z,53.53
2023-03-27T14:46:27.712Z,53.19
2023-03-27T14:47:50.242Z,53.48
2023-03-27T14:49:12.759Z,53.70
2023-03-27T14:50:38.256Z,53.88
2023-03-27T14:52:01.348Z,54.52
2023-03-27T14:54:04.337Z,54.59
2023-03-27T14:55:34.475Z,54.43
2023-03-27T14:57:15.161Z,54.38
2023-03-27T14:58:43.908Z,54.63
2023-03-27T15:00:06.976Z,54.55
2023-03-27T15:01:32.085Z,54.62
2023-03-27T15:02:57.207Z,54.96
2023-03-27T15:04:19.576Z,55.15
2023-03-27T15:05:43.529Z,55.66
2023-03-27T15:07:22.232Z,55.99
2023-03-27T15:09:04.136Z,55.87
2023-03-27T15:11:39.366Z,55.71
2023-03-27T15:13:17.275Z,55.81
2023-03-27T15:15:06.189Z,55.98
2023-03-27T15:16:52.133Z,56.17
2023-03-27T15:18:39.556Z,56.14
2023-03-27T15:20:27.332Z,56.00
2023-03-27T15:22:01.623Z,55.30
2023-03-27T15:23:43.449Z,55.48
2023-03-27T15:25:32.605Z,55.72
2023-03-27T15:27:15.628Z,55.36
2023-03-27T15:29:01.763Z,54.89
2023-03-27T15:30:56.719Z,54.90
2023-03-27T15:32:50.554Z,54.45
2023-03-27T15:34:26.496Z,54.30
2023-03-27T15:35:48.548Z,54.06
2023-03-27T15:37:11.087Z,53.68
2023-03-27T15:38:51.307Z,53.52
2023-03-27T15:40:16.208Z,52.83
2023-03-27T15:41:37.913Z,53.02
2023-03-27T15:43:23.099Z,52.57
2023-03-27T15:44:56.543Z,52.04
2023-03-27T15:46:35.963Z,51.57
2023-03-27T15:48:21.768Z,51.73
2023-03-27T15:50:02.291Z,51.51
2023-03-27T15:51:48.169Z,51.31
2023-03-27T15:53:10.046Z,51.56
2023-03-27T15:54:43.593Z,51.67
2023-03-27T15:56:17.442Z,51.34
2023-03-27T15:57:40.523Z,51.38
2023-03-27T15:59:02.435Z,51.43
2023-03-27T16:00:28.830Z,51.38
2023-03-27T16:01:54.210Z,51.70
2023-03-27T16:03:17.027Z,51.55
2023-03-27T16:04:39.107Z,51.46
2023-03-27T16:06:01.334Z,52.01
2023-03-27T16:07:23.503Z,52.08
2023-03-27T16:08:48.979Z,51.83
2023-03-27T16:10:26.494Z,51.39
2023-03-27T16:12:02.090Z,51.35
2023-03-27T16:13:47.080Z,51.35
2023-03-27T16:15:16.390Z,51.44
2023-03-27T16:17:05.167Z,51.52
2023-03-27T16:18:36.802Z,51.46
2023-03-27T16:20:07.920Z,51.04
2023-03-27T16:21:41.441Z,51.13
2023-03-27T16:23:04.288Z,51.44
2023-03-27T16:24:26.946Z,51.50
2023-03-27T16:25:48.802Z,51.68
2023-03-27T16:27:11.104Z,51.69
2023-03-27T16:28:35.621Z,52.04
2023-03-27T16:29:57.989Z,51.90
2023-03-27T16:31:19.909Z,51.90
2023-03-27T16:32:49.758Z,52.02
2023-03-27T16:34:11.937Z,52.65
2023-03-27T16:35:45.641Z,53.05
2023-03-27T16:37:09.826Z,54.50
2023-03-27T16:38:33.622Z,55.28
2023-03-27T16:39:55.745Z,56.20
2023-03-27T16:41:20.266Z,57.21
2023-03-27T16:42:53.603Z,58.20
2023-03-27T16:44:15.753Z,58.87
2023-03-27T16:45:38.050Z,59.33
2023-03-27T16:47:23.434Z,60.26
2023-03-27T16:48:45.619Z,60.80
2023-03-27T16:50:11.768Z,61.07
2023-03-27T16:51:33.920Z,61.41
2023-03-27T16:53:07.806Z,61.28
2023-03-27T16:54:41.993Z,60.80
2023-03-27T16:56:05.105Z,60.77
2023-03-27T16:57:27.413Z,60.84
2023-03-27T16:59:03.357Z,60.83
2023-03-27T17:00:35.089Z,60.67
2023-03-27T17:02:12.036Z,60.92
2023-03-27T17:03:45.974Z,61.05
2023-03-27T17:05:07.914Z,61.12
2023-03-27T17:06:32.062Z,60.92
2023-03-27T17:08:02.047Z,60.89
2023-03-27T17:09:24.425Z,61.29
2023-03-27T17:10:56.616Z,61.20
2023-03-27T17:12:28.637Z,61.32
2023-03-27T17:13:50.650Z,61.78
2023-03-27T17:15:12.744Z,61.89
2023-03-27T17:16:34.358Z,62.34
2023-03-27T17:17:56.295Z,62.32
2023-03-27T17:19:23.469Z,62.58
2023-03-27T17:20:46.358Z,62.49
2023-03-27T17:22:08.704Z,62.60
2023-03-27T17:23:31.516Z,62.60
2023-03-27T17:24:56.715Z,62.70
2023-03-27T17:26:19.948Z,62.88
2023-03-27T17:27:43.705Z,62.89
2023-03-27T17:29:06.128Z,62.90
2023-03-27T17:30:38.130Z,63.09
2023-03-27T17:32:02.274Z,63.27
2023-03-27T17:33:24.564Z,63.21
2023-03-27T17:34:46.383Z,63.46
2023-03-27T17:36:08.763Z,63.36
2023-03-27T17:37:30.742Z,63.71
2023-03-27T17:38:53.278Z,63.92
2023-03-27T17:40:15.267Z,64.22
2023-03-27T17:41:37.218Z,64.15
2023-03-27T17:43:01.467Z,64.24
2023-03-27T17:44:23.012Z,64.00
2023-03-27T17:45:52.657Z,64.16
2023-03-27T17:47:15.580Z,63.83
2023-03-27T17:48:39.697Z,63.80
2023-03-27T17:50:01.925Z,63.76
2023-03-27T17:51:37.023Z,63.68
2023-03-27T17:53:22.663Z,63.23
2023-03-27T17:54:46.591Z,63.40
2023-03-27T17:56:27.485Z,63.57
2023-03-27T17:58:13.917Z,63.23
2023-03-27T17:59:56.115Z,63.22
2023-03-27T18:01:29.689Z,63.24
2023-03-27T18:02:59.603Z,63.22
2023-03-27T18:04:24.308Z,63.21
2023-03-27T18:06:05.437Z,63.39
2023-03-27T18:07:39.335Z,63.16
2023-03-27T18:09:20.482Z,62.84
2023-03-27T18:10:50.503Z,62.69
2023-03-27T18:12:17.344Z,62.69
2023-03-27T18:14:01.678Z,62.38
2023-03-27T18:15:45.730Z,62.42
2023-03-27T18:17:27.688Z,62.45
2023-03-27T18:18:51.047Z,62.11
2023-03-27T18:20:45.625Z,62.18
2023-03-27T18:22:19.926Z,62.23
2023-03-27T18:24:11.639Z,62.44
2023-03-27T18:25:48.221Z,62.24
2023-03-27T18:27:22.423Z,62.48
2023-03-27T18:29:16.609Z,62.58
2023-03-27T18:30:42.582Z,62.65
2023-03-27T18:32:28.555Z,62.61
2023-03-27T18:33:58.208Z,62.57
2023-03-27T18:35:33.744Z,62.21
2023-03-27T18:37:11.135Z,62.19
2023-03-27T18:38:56.160Z,61.95
2023-03-27T18:40:21.015Z,61.98
2023-03-27T18:42:02.285Z,61.90
2023-03-27T18:43:45.611Z,61.79
2023-03-27T18:45:19.141Z,61.97
2023-03-27T18:46:43.618Z,61.84
2023-03-27T18:48:06.069Z,61.83
2023-03-27T18:49:39.517Z,61.91
2023-03-27T18:53:24.257Z,62.10
2023-03-27T18:55:07.621Z,62.20
2023-03-27T18:56:41.054Z,62.31
2023-03-27T18:58:26.616Z,62.17
2023-03-27T19:00:09.620Z,62.21
2023-03-27T19:01:34.958Z,62.22
2023-03-27T19:03:00.253Z,62.07
2023-03-27T19:04:34.105Z,62.03
2023-03-27T19:06:07.425Z,62.17
2023-03-27T19:07:48.431Z,62.13
2023-03-27T19:09:40.799Z,62.06
2023-03-27T19:11:18.352Z,62.32
2023-03-27T19:13:09.006Z,62.01
2023-03-27T19:15:00.443Z,61.90
2023-03-27T19:17:13.439Z,61.99
2023-03-27T19:19:01.932Z,62.34
2023-03-27T19:20:42.380Z,62.82
2023-03-27T19:22:23.383Z,63.04
2023-03-27T19:23:54.723Z,63.12
2023-03-27T19:25:19.710Z,62.97
2023-03-27T19:26:41.628Z,62.92
2023-03-27T19:28:04.112Z,62.89
2023-03-27T19:29:25.955Z,62.90
2023-03-27T19:30:48.406Z,62.86
2023-03-27T19:32:10.296Z,62.94
2023-03-27T19:33:34.688Z,63.01
2023-03-27T19:34:59.639Z,63.24
2023-03-27T19:36:21.809Z,63.19
2023-03-27T19:37:43.441Z,63.03
2023-03-27T19:39:19.458Z,63.28
2023-03-27T19:40:42.968Z,63.35
2023-03-27T19:42:05.165Z,63.38
2023-03-27T19:43:29.926Z,63.69
2023-03-27T19:44:51.790Z,63.75
2023-03-27T19:46:16.135Z,63.85
2023-03-27T19:47:38.539Z,64.01
2023-03-27T19:49:00.955Z,63.70
2023-03-27T19:50:41.920Z,63.78
2023-03-27T19:52:16.847Z,63.60
2023-03-27T19:53:46.284Z,63.63
2023-03-27T19:55:19.865Z,63.82
2023-03-27T19:56:46.646Z,63.82
2023-03-27T19:58:11.119Z,63.80
2023-03-27T19:59:32.875Z,63.97
2023-03-27T20:00:54.858Z,63.96
2023-03-27T20:02:17.319Z,63.88
2023-03-27T20:03:59.431Z,64.02
2023-03-27T20:05:53.601Z,64.31
2023-03-27T20:07:29.530Z,64.46
2023-03-27T20:09:10.428Z,64.57
2023-03-27T20:10:53.609Z,64.63
2023-03-27T20:12:33.618Z,64.46
2023-03-27T20:14:18.583Z,64.59
2023-03-27T20:15:42.258Z,64.33
2023-03-27T20:17:27.964Z,64.31
2023-03-27T20:19:16.602Z,64.18
2023-03-27T20:21:02.046Z,64.11
2023-03-27T20:22:57.079Z,63.96
2023-03-27T20:24:28.823Z,63.92
2023-03-27T20:26:06.791Z,63.99
2023-03-27T20:28:02.632Z,64.19
2023-03-27T20:29:56.018Z,64.29
2023-03-27T20:31:30.517Z,64.36
2023-03-27T20:33:16.014Z,64.30
2023-03-27T20:35:20.673Z,64.28
2023-03-27T20:37:11.963Z,64.22
2023-03-27T20:39:14.611Z,64.28
2023-03-27T20:41:08.282Z,64.00
2023-03-27T20:42:50.588Z,63.99
2023-03-27T20:44:44.305Z,63.66
2023-03-27T20:46:29.641Z,63.64
2023-03-27T20:48:14.863Z,63.25
2023-03-27T20:49:48.199Z,63.32
2023-03-27T20:51:17.705Z,63.31
2023-03-27T20:52:39.476Z,63.36
2023-03-27T20:54:01.771Z,63.11
2023-03-27T20:55:33.625Z,63.17
2023-03-27T20:57:00.447Z,63.14
2023-03-27T20:58:22.402Z,63.14
2023-03-27T20:59:46.259Z,63.02
2023-03-27T21:01:09.410Z,62.86
2023-03-27T21:02:31.310Z,62.49
2023-03-27T21:03:53.658Z,62.37
2023-03-27T21:05:15.914Z,62.53
2023-03-27T21:06:37.403Z,62.56
2023-03-27T21:07:59.851Z,62.64
2023-03-27T21:09:21.786Z,62.52
2023-03-27T21:10:43.518Z,62.28
2023-03-27T21:12:08.199Z,62.25
2023-03-27T21:13:30.298Z,62.24
2023-03-27T21:14:52.025Z,61.94
2023-03-27T21:16:21.417Z,62.05
2023-03-27T21:17:50.612Z,61.99
2023-03-27T21:19:12.879Z,61.76
2023-03-27T21:20:46.209Z,61.65